createdAt,value
2018-07-01T00:00:35.000Z,23.5
2018-07-01T00:10:35.000Z,23.6
2018-07-01T00:20:35.000Z,23.6
2018-07-01T00:30:35.000Z,23.6
2018-07-01T00:40:35.000Z,23.5
2018-07-01T00:50:35.000Z,23.6
2018-07-01T01:00:35.000Z,23.5
2018-07-01T01:10:35.000Z,23.4
2018-07-01T01:20:35.000Z,23.4
2018-07-01T01:30:35.000Z,23.3
2018-07-01T01:40:35.000Z,23.3
2018-07-01T01:50:35.000Z,23.3
2018-07-01T02:00:35.000Z,23.2
2018-07-01T02:10:35.000Z,23.2
2018-07-01T02:20:35.000Z,23.1
2018-07-01T02:30:36.000Z,23.2
2018-07-01T02:40:36.000Z,23
2018-07-01T02:50:36.000Z,23
2018-07-01T03:00:36.000Z,22.9
2018-07-01T03:10:36.000Z,22.9
2018-07-01T03:20:36.000Z,22.7
2018-07-01T03:30:36.000Z,22.8
2018-07-01T03:40:36.000Z,22.7
2018-07-01T03:50:36.000Z,22.7
2018-07-01T04:00:36.000Z,22.7
2018-07-01T04:10:36.000Z,22.7
2018-07-01T04:20:36.000Z,22.7
2018-07-01T04:30:36.000Z,22.6
2018-07-01T04:40:36.000Z,22.6
2018-07-01T04:50:36.000Z,22.8
2018-07-01T05:00:36.000Z,22.8
2018-07-01T05:10:36.000Z,23.1
2018-07-01T05:20:36.000Z,23.3
2018-07-01T05:30:36.000Z,23.5
2018-07-01T05:40:36.000Z,23.6
2018-07-01T05:50:36.000Z,23.8
2018-07-01T06:00:36.000Z,23.9
2018-07-01T06:10:36.000Z,24
2018-07-01T06:20:36.000Z,24.1
2018-07-01T06:30:36.000Z,24.1
2018-07-01T06:40:36.000Z,24.2
2018-07-01T06:50:36.000Z,24.2
2018-07-01T07:00:36.000Z,24.3
2018-07-01T07:10:36.000Z,24.3
2018-07-01T07:20:36.000Z,24.2
2018-07-01T07:30:36.000Z,24.2
2018-07-01T07:40:36.000Z,24.2
2018-07-01T07:50:36.000Z,24.1
2018-07-01T08:00:36.000Z,24.2
2018-07-01T08:10:36.000Z,24.2
2018-07-01T08:20:36.000Z,24.2
2018-07-01T08:30:37.000Z,24.3
2018-07-01T08:40:37.000Z,24.3
2018-07-01T08:50:36.000Z,24.4
2018-07-01T09:00:36.000Z,24.3
2018-07-01T09:10:36.000Z,24.3
2018-07-01T09:20:37.000Z,24.3
2018-07-01T09:30:37.000Z,24.3
2018-07-01T09:40:37.000Z,24.3
2018-07-01T09:50:37.000Z,24.2
2018-07-01T10:00:37.000Z,24.2
2018-07-01T10:10:37.000Z,24.3
2018-07-01T10:20:37.000Z,24.3
2018-07-01T10:30:39.000Z,24.3
2018-07-01T10:40:37.000Z,24.2
2018-07-01T10:50:37.000Z,24.3
2018-07-01T11:00:37.000Z,24.3
2018-07-01T11:10:37.000Z,24.3
2018-07-01T11:20:37.000Z,24.3
2018-07-01T11:30:37.000Z,24.4
2018-07-01T11:40:37.000Z,24.4
2018-07-01T11:50:37.000Z,24.7
2018-07-01T12:00:37.000Z,24.7
2018-07-01T12:10:37.000Z,24.6
2018-07-01T12:20:37.000Z,24.6
2018-07-01T12:30:37.000Z,24.4
2018-07-01T12:40:37.000Z,24.4
2018-07-01T12:50:37.000Z,24.5
2018-07-01T13:00:37.000Z,24.5
2018-07-01T13:10:37.000Z,24.4
2018-07-01T13:20:37.000Z,24.5
2018-07-01T13:30:37.000Z,24.5
2018-07-01T13:40:39.000Z,24.5
2018-07-01T13:50:37.000Z,24.5
2018-07-01T14:00:37.000Z,24.5
2018-07-01T14:10:37.000Z,24.5
2018-07-01T14:20:37.000Z,24.5
2018-07-01T14:30:37.000Z,24.5
2018-07-01T14:40:37.000Z,24.5
2018-07-01T14:50:37.000Z,24.5
2018-07-01T15:00:37.000Z,24.6
2018-07-01T15:10:37.000Z,24.5
2018-07-01T15:20:37.000Z,24.5
2018-07-01T15:30:37.000Z,24.5
2018-07-01T15:40:37.000Z,24.5
2018-07-01T15:50:37.000Z,24.5
2018-07-01T16:00:37.000Z,24.5
2018-07-01T16:10:38.000Z,24.6
2018-07-01T16:20:38.000Z,24.6
2018-07-01T16:30:38.000Z,24.6
2018-07-01T16:40:38.000Z,24.4
2018-07-01T16:50:38.000Z,24.6
2018-07-01T17:00:38.000Z,24.6
2018-07-01T17:20:38.000Z,24.6
2018-07-01T17:30:38.000Z,24.5
2018-07-01T17:40:38.000Z,24.5
2018-07-01T17:50:38.000Z,24.5
2018-07-01T18:00:38.000Z,24.5
2018-07-01T18:10:38.000Z,24.5
2018-07-01T18:20:38.000Z,24.5
2018-07-01T18:30:38.000Z,24.5
2018-07-01T18:40:38.000Z,24.6
2018-07-01T18:50:38.000Z,24.6
2018-07-01T19:00:38.000Z,24.5
2018-07-01T19:10:38.000Z,24.6
2018-07-01T19:20:38.000Z,24.6
2018-07-01T19:30:38.000Z,24.6
2018-07-01T19:50:38.000Z,24.6
2018-07-01T20:00:38.000Z,24.6
2018-07-01T20:10:38.000Z,24.6
2018-07-01T20:30:38.000Z,24.6
2018-07-01T20:40:38.000Z,24.6
2018-07-01T21:00:40.000Z,24.7
2018-07-01T21:10:38.000Z,24.4
2018-07-01T21:20:38.000Z,24.4
2018-07-01T21:40:40.000Z,24.6
2018-07-01T21:50:38.000Z,24.6
2018-07-01T22:00:38.000Z,24.7
2018-07-01T22:10:38.000Z,24.3
2018-07-01T22:20:38.000Z,24.1
2018-07-01T22:30:38.000Z,24
2018-07-01T22:40:41.000Z,23.9
2018-07-01T22:50:38.000Z,23.8
2018-07-01T23:00:39.000Z,23.7
2018-07-01T23:10:39.000Z,23.6
2018-07-01T23:20:39.000Z,23.6
2018-07-01T23:30:39.000Z,23.6
2018-07-01T23:40:39.000Z,23.6
2018-07-01T23:50:39.000Z,23.6
